Time;durP1;ratioP1;P1;durP2;ratioP2;P2;SDS_P1;SDS_P2;PMS_P1;PMS_P2;Temp;Humidity;BMP_temperature;BMP_pressure;BME280_temperature;BME280_humidity;BME280_pressure;Samples;Min_cycle;Max_cycle;Signal;HPM_P1;HPM_P2
2021/12/01 00:02:24;;;;;;;4.85;2.80;;;;;;;1.20;56.52;99856.16;5111768;28;20039;-20
2021/12/01 00:04:49;;;;;;;5.50;3.20;;;;;;;0.98;57.39;99857.63;5111331;28;20027;-20
2021/12/01 00:07:15;;;;;;;4.95;2.85;;;;;;;0.98;57.22;99841.84;5111207;28;20035;-20
2021/12/01 00:09:40;;;;;;;4.78;2.63;;;;;;;0.99;57.54;99867.16;5111446;28;20422;-20
2021/12/01 00:12:06;;;;;;;5.43;2.80;;;;;;;0.98;57.60;99873.38;5111443;28;20031;-21
2021/12/01 00:14:31;;;;;;;4.85;2.75;;;;;;;0.99;57.49;99859.28;5111412;28;20457;-20
2021/12/01 00:16:57;;;;;;;5.70;3.05;;;;;;;0.98;58.05;99873.38;5111276;28;20031;-20
2021/12/01 00:19:22;;;;;;;5.65;3.00;;;;;;;0.87;59.05;99865.81;5111019;28;20552;-20
2021/12/01 00:21:48;;;;;;;5.80;3.40;;;;;;;0.90;58.62;99844.47;5111310;28;20579;-20
2021/12/01 00:24:13;;;;;;;6.70;3.20;;;;;;;1.04;58.11;99867.47;5111186;28;20024;-21
2021/12/01 00:26:39;;;;;;;6.50;2.78;;;;;;;0.81;57.61;99859.41;5111226;28;20817;-21
2021/12/01 00:29:04;;;;;;;4.85;2.65;;;;;;;0.74;57.06;99846.09;5110898;28;20042;-20
2021/12/01 00:31:29;;;;;;;4.75;2.75;;;;;;;1.08;56.40;99860.09;5111204;28;20071;-20
2021/12/01 00:33:55;;;;;;;5.65;2.58;;;;;;;1.12;55.17;99861.41;5092778;28;20461;-21
2021/12/01 00:36:21;;;;;;;5.88;3.22;;;;;;;1.17;54.98;99857.31;5110834;28;20466;-20
2021/12/01 00:38:46;;;;;;;5.65;3.00;;;;;;;1.35;54.94;99867.69;5110848;28;20032;-20
2021/12/01 00:41:12;;;;;;;6.35;3.58;;;;;;;1.11;55.07;99863.22;5110914;28;20403;-20
2021/12/01 00:43:41;;;;;;;6.78;3.08;;;;;;;1.27;54.79;99846.66;5110490;28;20087;-20
2021/12/01 00:46:19;;;;;;;5.68;3.20;;;;;;;1.46;53.50;99871.78;5110619;28;20494;-20
2021/12/01 00:48:45;;;;;;;5.25;2.90;;;;;;;1.57;54.13;99868.84;5110641;28;20033;-20
2021/12/01 00:51:10;;;;;;;6.80;3.58;;;;;;;1.56;53.82;99882.94;5110671;28;20035;-21
2021/12/01 00:53:36;;;;;;;6.00;3.35;;;;;;;1.62;54.22;99855.19;5110914;28;20039;-22
2021/12/01 00:56:01;;;;;;;5.38;3.40;;;;;;;1.83;53.11;99875.69;5110759;28;20806;-21
2021/12/01 00:58:27;;;;;;;7.07;3.50;;;;;;;1.78;53.81;99864.88;5110538;28;20032;-22
2021/12/01 01:00:54;;;;;;;6.22;3.65;;;;;;;2.03;54.41;99863.00;5110457;28;20407;-20
2021/12/01 01:03:20;;;;;;;5.18;3.20;;;;;;;1.90;53.17;99846.91;5110042;28;20039;-21
2021/12/01 01:05:45;;;;;;;6.95;3.97;;;;;;;1.69;53.42;99844.81;5110444;28;20032;-21
2021/12/01 01:08:11;;;;;;;5.85;3.38;;;;;;;1.46;54.31;99850.75;5110213;28;20065;-21
2021/12/01 01:18:48;;;;;;;6.45;3.67;;;;;;;1.52;57.01;99836.97;5110492;28;20034;-21
2021/12/01 01:21:14;;;;;;;9.27;3.78;;;;;;;1.54;57.40;99826.28;5110137;28;20138;-21
2021/12/01 01:23:39;;;;;;;7.88;4.38;;;;;;;1.67;56.11;99829.22;5110067;28;20088;-22
2021/12/01 01:26:06;;;;;;;8.63;5.07;;;;;;;1.42;56.15;99801.34;5109789;28;20081;-21
2021/12/01 01:28:31;;;;;;;7.72;4.20;;;;;;;1.57;56.96;99821.53;5109835;28;20027;-22
2021/12/01 01:30:57;;;;;;;8.93;4.78;;;;;;;1.60;54.20;99821.19;5109857;28;20042;-21
2021/12/01 01:33:23;;;;;;;14.32;6.75;;;;;;;1.74;53.66;99832.00;5091403;28;20034;-20
2021/12/01 01:35:48;;;;;;;7.85;4.10;;;;;;;1.64;53.32;99834.00;5109904;28;20408;-20
2021/12/01 01:38:14;;;;;;;6.20;3.58;;;;;;;1.37;56.25;99822.84;5091430;28;20080;-20
2021/12/01 01:40:39;;;;;;;6.88;4.25;;;;;;;1.44;56.20;99810.69;5109534;28;20043;-21
2021/12/01 01:43:05;;;;;;;7.38;4.20;;;;;;;1.72;55.17;99802.44;5109227;28;20063;-20
2021/12/01 01:45:31;;;;;;;8.20;4.40;;;;;;;1.55;55.55;99810.38;5091005;28;20177;-21
2021/12/01 01:48:08;;;;;;;6.50;3.85;;;;;;;0.53;59.02;99803.72;5108828;28;20047;-20
2021/12/01 01:50:36;;;;;;;6.60;3.83;;;;;;;0.63;59.97;99801.78;5109584;28;20042;-21
2021/12/01 01:53:08;;;;;;;7.18;3.83;;;;;;;0.73;58.98;99799.81;5109191;28;20533;-20
2021/12/01 01:55:38;;;;;;;6.63;3.88;;;;;;;0.83;58.32;99764.72;5109322;28;20034;-21
2021/12/01 01:58:04;;;;;;;7.68;4.20;;;;;;;0.90;58.41;99770.97;5091125;28;20076;-21
2021/12/01 02:00:29;;;;;;;6.47;4.07;;;;;;;0.78;58.14;99773.91;5109279;28;20440;-21
2021/12/01 02:02:57;;;;;;;6.93;4.13;;;;;;;1.01;57.60;99762.78;5091001;28;20084;-22
2021/12/01 02:05:23;;;;;;;6.97;4.03;;;;;;;1.08;56.41;99771.63;5108839;28;20027;-21
2021/12/01 02:07:50;;;;;;;7.00;3.90;;;;;;;1.09;56.34;99744.38;5109122;28;20036;-22
2021/12/01 02:10:16;;;;;;;6.22;3.58;;;;;;;0.74;56.39;99756.84;5109105;28;20055;-21
2021/12/01 02:12:41;;;;;;;7.03;3.60;;;;;;;0.79;56.37;99769.47;5109202;28;20055;-21
2021/12/01 02:15:07;;;;;;;7.13;3.90;;;;;;;0.52;56.38;99767.97;5108880;28;20419;-20
2021/12/01 02:17:33;;;;;;;6.82;4.18;;;;;;;0.76;57.06;99754.88;5109221;28;20034;-20
2021/12/01 02:19:58;;;;;;;7.57;3.90;;;;;;;1.04;56.71;99756.38;5073939;28;20031;-21
2021/12/01 02:22:24;;;;;;;7.07;3.97;;;;;;;1.06;55.98;99755.22;5109029;28;20036;-20
2021/12/01 02:24:49;;;;;;;7.47;3.72;;;;;;;0.84;55.78;99745.38;5090708;28;20027;-21
2021/12/01 02:27:14;;;;;;;7.20;3.90;;;;;;;0.63;57.12;99724.84;5108395;28;20024;-21
2021/12/01 02:29:40;;;;;;;6.55;4.10;;;;;;;0.87;56.84;99739.78;5108871;28;20030;-20
2021/12/01 02:32:06;;;;;;;6.88;3.63;;;;;;;0.57;57.22;99734.19;5108600;28;20486;-21
2021/12/01 02:34:38;;;;;;;8.25;3.92;;;;;;;0.32;57.61;99768.25;5108413;28;20047;-21
2021/12/01 02:37:05;;;;;;;6.03;3.42;;;;;;;-0.16;59.58;99759.22;5090933;28;20104;-20
2021/12/01 02:39:30;;;;;;;7.20;3.63;;;;;;;-0.11;58.65;99761.38;5108536;28;20015;-21
2021/12/01 02:41:57;;;;;;;6.65;3.53;;;;;;;-0.09;60.10;99765.47;5108616;28;20066;-20
2021/12/01 02:44:23;;;;;;;7.10;3.20;;;;;;;-0.31;60.27;99777.31;5108332;28;20031;-21
2021/12/01 02:46:49;;;;;;;6.40;3.45;;;;;;;-0.23;61.12;99763.44;5108512;28;20031;-21
2021/12/01 02:49:21;;;;;;;5.70;3.22;;;;;;;-0.09;61.61;99778.59;5108500;28;20034;-20
2021/12/01 02:51:49;;;;;;;7.22;3.17;;;;;;;0.08;61.43;99765.53;5108369;28;20028;-21
2021/12/01 02:54:14;;;;;;;6.93;3.88;;;;;;;0.37;61.05;99771.22;5108361;28;20092;-21
2021/12/01 02:56:40;;;;;;;7.28;3.70;;;;;;;0.37;61.53;99780.91;5108486;28;20479;-21
2021/12/01 02:59:06;;;;;;;23.67;13.23;;;;;;;0.50;59.99;99772.56;5072119;28;20035;-21
2021/12/01 03:01:31;;;;;;;9.38;6.43;;;;;;;0.47;62.25;99783.38;5090063;28;20023;-20
2021/12/01 03:03:58;;;;;;;7.18;4.03;;;;;;;0.23;61.20;99789.38;5108197;28;20031;-21
2021/12/01 03:06:26;;;;;;;6.88;4.10;;;;;;;0.34;60.18;99789.88;5108204;28;20027;-21
2021/12/01 03:08:52;;;;;;;8.30;4.25;;;;;;;0.17;60.15;99802.13;5108244;28;20023;-21
2021/12/01 03:11:17;;;;;;;6.70;3.80;;;;;;;0.58;59.11;99793.56;5089505;28;20160;-21
2021/12/01 03:13:43;;;;;;;7.80;3.80;;;;;;;0.80;58.05;99792.13;5108058;28;20426;-20
2021/12/01 03:16:08;;;;;;;7.05;3.30;;;;;;;0.52;58.30;99794.22;5107974;28;20027;-20
2021/12/01 03:18:34;;;;;;;6.45;3.45;;;;;;;0.60;58.28;99796.84;5108038;28;20085;-20
2021/12/01 03:20:59;;;;;;;9.48;4.80;;;;;;;0.92;59.44;99796.09;5107994;28;20042;-21
2021/12/01 03:23:25;;;;;;;8.98;4.30;;;;;;;0.66;59.95;99801.47;5108079;28;20043;-22
2021/12/01 03:25:51;;;;;;;8.18;3.80;;;;;;;0.67;59.39;99795.22;5108174;28;20035;-21
2021/12/01 03:28:16;;;;;;;9.32;4.28;;;;;;;0.36;60.50;99790.53;5107977;28;20568;-21
2021/12/01 03:30:42;;;;;;;7.68;3.75;;;;;;;-0.18;62.14;99782.16;5107921;28;20771;-20
2021/12/01 03:33:10;;;;;;;9.82;5.43;;;;;;;-0.31;63.62;99776.50;5107597;28;20023;-20
2021/12/01 03:35:37;;;;;;;9.85;4.80;;;;;;;0.02;63.01;99774.03;5107976;28;20165;-21
2021/12/01 03:38:02;;;;;;;12.68;7.00;;;;;;;-0.28;64.52;99791.94;5073216;28;20038;-20
2021/12/01 03:40:27;;;;;;;11.15;5.82;;;;;;;-0.10;64.03;99795.31;5107762;28;20028;-20
2021/12/01 03:42:53;;;;;;;11.98;5.90;;;;;;;-0.50;66.07;99793.25;5107402;28;20051;-20
2021/12/01 03:45:18;;;;;;;10.30;5.95;;;;;;;-0.56;67.12;99799.13;5107716;28;20790;-20
2021/12/01 03:47:44;;;;;;;12.00;6.43;;;;;;;-0.43;66.13;99789.88;5107641;28;20040;-20
2021/12/01 03:50:10;;;;;;;43.22;27.05;;;;;;;-0.12;64.56;99786.78;5107963;28;20023;-21
2021/12/01 03:52:35;;;;;;;13.50;7.95;;;;;;;0.25;64.23;99803.97;5089605;28;20028;-21
2021/12/01 03:55:01;;;;;;;27.90;18.17;;;;;;;0.46;63.23;99795.66;5107342;28;20031;-21
2021/12/01 03:57:26;;;;;;;36.05;22.60;;;;;;;0.40;63.23;99785.81;5107494;28;20055;-21
2021/12/01 03:59:52;;;;;;;57.10;36.45;;;;;;;0.29;64.50;99804.47;5089437;28;20023;-20
2021/12/01 04:02:17;;;;;;;49.20;29.33;;;;;;;0.68;62.94;99791.63;5089749;28;20031;-20
2021/12/01 04:04:43;;;;;;;36.10;25.77;;;;;;;0.61;63.98;99785.38;5107641;28;20399;-21
2021/12/01 04:07:08;;;;;;;31.77;22.08;;;;;;;0.80;63.55;99792.94;5107636;28;20023;-20
2021/12/01 04:09:34;;;;;;;20.90;11.57;;;;;;;0.69;64.07;99795.88;5107986;28;20036;-20
2021/12/01 04:12:00;;;;;;;16.05;9.35;;;;;;;0.89;62.63;99800.84;5110818;28;20042;-21
2021/12/01 04:14:25;;;;;;;36.38;30.90;;;;;;;1.03;63.38;99792.31;5111434;28;20035;-21
2021/12/01 04:16:50;;;;;;;18.80;13.32;;;;;;;0.98;63.18;99789.34;5111306;28;20024;-20
2021/12/01 04:19:16;;;;;;;15.13;10.10;;;;;;;1.13;62.50;99787.72;5093394;28;20034;-21
2021/12/01 04:21:42;;;;;;;18.63;13.57;;;;;;;1.00;62.67;99790.84;5111334;28;20840;-21
2021/12/01 04:24:07;;;;;;;18.33;14.27;;;;;;;1.08;63.35;99800.50;5111522;28;20035;-21
2021/12/01 04:26:33;;;;;;;42.47;22.40;;;;;;;0.78;65.31;99815.09;5111144;28;20119;-21
2021/12/01 04:29:00;;;;;;;14.45;9.80;;;;;;;0.93;63.51;99802.97;5111015;28;20106;-22
2021/12/01 04:31:26;;;;;;;17.75;9.82;;;;;;;0.93;63.19;99817.91;5110892;28;20157;-20
2021/12/01 04:33:51;;;;;;;26.05;14.73;;;;;;;0.89;64.44;99813.97;5092970;28;20507;-21
2021/12/01 04:36:17;;;;;;;25.70;14.23;;;;;;;0.35;66.28;99799.41;5092722;28;20529;-20
2021/12/01 04:38:43;;;;;;;28.08;17.58;;;;;;;0.74;64.41;99806.72;5110908;28;20034;-21
2021/12/01 04:41:12;;;;;;;24.92;14.02;;;;;;;1.10;63.37;99809.03;5110542;28;20036;-20
2021/12/01 04:43:38;;;;;;;;;;;;;;;1.14;63.17;99817.41;5110885;28;20116;-21
2021/12/01 04:46:04;;;;;;;30.40;16.35;;;;;;;0.78;64.08;99800.16;5110667;28;19915;-22
2021/12/01 04:48:30;;;;;;;28.65;16.55;;;;;;;0.57;66.03;99790.13;5110826;28;20078;-20
2021/12/01 04:50:55;;;;;;;34.53;21.13;;;;;;;0.48;65.30;99791.09;5110816;28;20804;-21
2021/12/01 04:53:21;;;;;;;36.65;19.73;;;;;;;0.40;64.63;99791.88;5110501;28;20055;-21
2021/12/01 04:55:46;;;;;;;23.35;12.73;;;;;;;0.30;65.08;99790.38;5110948;28;20866;-21
2021/12/01 04:58:11;;;;;;;19.77;12.20;;;;;;;0.49;64.58;99797.16;5110526;28;20511;-21
2021/12/01 05:00:37;;;;;;;47.47;30.60;;;;;;;0.80;63.69;99811.31;5110670;28;20039;-21
2021/12/01 05:03:04;;;;;;;19.15;12.23;;;;;;;0.60;63.59;99796.84;5110486;28;20536;-20
2021/12/01 05:05:29;;;;;;;37.22;24.70;;;;;;;0.75;62.82;99804.91;5110352;28;20080;-21
2021/12/01 05:07:55;;;;;;;27.27;17.60;;;;;;;0.49;64.70;99810.25;5110718;28;20031;-21
2021/12/01 05:10:20;;;;;;;22.77;12.73;;;;;;;-0.23;67.06;99808.00;5110283;28;20792;-20
2021/12/01 05:12:46;;;;;;;17.67;9.88;;;;;;;-0.58;67.86;99801.06;5110204;28;20027;-21
2021/12/01 05:15:11;;;;;;;20.10;9.73;;;;;;;-0.30;67.46;99788.66;5109823;28;20044;-21
2021/12/01 05:17:37;;;;;;;80.47;42.08;;;;;;;0.28;65.59;99805.44;5110257;28;20027;-20
2021/12/01 05:20:04;;;;;;;42.33;24.63;;;;;;;-0.06;67.89;99807.13;5110039;28;20423;-21
2021/12/01 05:22:30;;;;;;;38.53;22.80;;;;;;;0.29;66.68;99804.47;5109322;28;20023;-21
2021/12/01 05:24:55;;;;;;;51.60;28.65;;;;;;;0.04;66.98;99806.16;5091831;28;20501;-21
2021/12/01 05:27:21;;;;;;;33.53;17.65;;;;;;;0.37;66.97;99802.69;5109715;28;20088;-21
2021/12/01 05:29:47;;;;;;;25.30;14.15;;;;;;;0.45;66.31;99793.19;5109774;28;20047;-21
2021/12/01 05:32:13;;;;;;;27.70;16.13;;;;;;;0.40;66.27;99802.38;5109872;28;20046;-21
2021/12/01 05:34:39;;;;;;;30.95;18.17;;;;;;;0.56;65.64;99790.28;5110317;28;20054;-21
2021/12/01 05:37:04;;;;;;;39.72;25.13;;;;;;;0.89;65.11;99806.91;5109772;28;20820;-21
2021/12/01 05:39:32;;;;;;;47.72;29.40;;;;;;;0.76;65.17;99791.63;5091181;28;20092;-21
2021/12/01 05:41:58;;;;;;;34.97;20.40;;;;;;;0.46;65.20;99789.59;5109775;28;20087;-20
2021/12/01 05:44:23;;;;;;;33.55;19.42;;;;;;;0.81;64.35;99806.88;5109811;28;20280;-21
2021/12/01 05:46:49;;;;;;;33.03;19.05;;;;;;;1.04;63.72;99804.44;5109480;28;20032;-21
2021/12/01 05:49:14;;;;;;;27.05;16.63;;;;;;;0.69;65.04;99806.38;5109443;28;20028;-21
2021/12/01 05:51:40;;;;;;;29.77;19.27;;;;;;;0.77;65.03;99811.63;5109853;28;20031;-20
2021/12/01 05:54:05;;;;;;;59.83;30.58;;;;;;;0.24;67.68;99812.81;5109294;28;20031;-20
2021/12/01 05:56:30;;;;;;;39.15;22.05;;;;;;;0.36;67.66;99806.28;5091345;28;20024;-21
2021/12/01 05:58:56;;;;;;;66.75;36.63;;;;;;;0.37;67.54;99794.81;5109561;28;20042;-21
2021/12/01 06:01:22;;;;;;;61.90;37.78;;;;;;;0.60;67.14;99807.34;5109074;28;20037;-20
2021/12/01 06:03:47;;;;;;;54.85;29.80;;;;;;;0.67;66.44;99808.34;5109533;28;20035;-20
2021/12/01 06:06:13;;;;;;;51.75;29.15;;;;;;;0.69;66.26;99811.63;5109209;28;20089;-20
2021/12/01 06:08:38;;;;;;;57.88;30.65;;;;;;;0.89;66.25;99808.72;5109007;28;20035;-21
2021/12/01 06:11:04;;;;;;;60.95;31.92;;;;;;;1.22;65.61;99811.34;5109020;28;20028;-21
2021/12/01 06:13:29;;;;;;;68.25;33.67;;;;;;;0.95;66.54;99815.94;5109340;28;20028;-20
2021/12/01 06:15:55;;;;;;;80.43;37.92;;;;;;;1.05;65.55;99821.84;5074072;28;20030;-20
2021/12/01 06:18:20;;;;;;;76.70;40.63;;;;;;;1.06;65.13;99817.41;5108894;28;20031;-21
2021/12/01 06:20:46;;;;;;;73.70;39.25;;;;;;;1.26;64.50;99791.66;5109041;28;20028;-21
2021/12/01 06:23:12;;;;;;;78.60;43.35;;;;;;;1.12;64.60;99817.56;5108583;28;20035;-20
2021/12/01 06:25:37;;;;;;;93.43;57.47;;;;;;;0.92;65.58;99822.34;5108819;28;20031;-21
2021/12/01 06:28:03;;;;;;;82.07;40.20;;;;;;;0.96;66.34;99825.44;5108566;28;20032;-20
2021/12/01 06:30:31;;;;;;;95.32;43.30;;;;;;;1.07;65.80;99840.91;5108713;28;20632;-21
2021/12/01 06:32:57;;;;;;;78.53;37.60;;;;;;;1.69;64.03;99855.34;5090845;28;20035;-20
2021/12/01 06:35:22;;;;;;;107.78;51.83;;;;;;;2.10;61.80;99847.38;5108378;28;20039;-20
2021/12/01 06:37:48;;;;;;;62.72;32.80;;;;;;;1.75;63.08;99849.41;5108390;28;20613;-21
2021/12/01 06:40:13;;;;;;;67.85;32.83;;;;;;;1.45;62.72;99833.38;5108575;28;20030;-21
2021/12/01 06:42:39;;;;;;;63.80;33.30;;;;;;;1.40;62.80;99846.16;5090082;28;20062;-20
2021/12/01 06:45:06;;;;;;;32.17;19.48;;;;;;;1.03;64.31;99820.38;5108114;28;20202;-20
2021/12/01 06:47:34;;;;;;;31.50;20.80;;;;;;;1.18;63.79;99852.88;5108636;28;20037;-21
2021/12/01 06:49:59;;;;;;;69.70;38.10;;;;;;;1.04;64.55;99862.22;5108600;28;20024;-21
2021/12/01 06:52:28;;;;;;;36.72;20.58;;;;;;;0.75;64.57;99863.47;5108463;28;20059;-20
2021/12/01 06:54:54;;;;;;;35.33;25.77;;;;;;;0.84;64.62;99876.63;5108548;28;20028;-21
2021/12/01 06:57:19;;;;;;;32.65;19.45;;;;;;;1.56;63.48;99880.31;5108093;28;20028;-21
2021/12/01 06:59:45;;;;;;;52.67;37.63;;;;;;;1.64;61.80;99840.06;5108288;28;20027;-21
2021/12/01 07:02:10;;;;;;;24.85;15.00;;;;;;;1.93;61.70;99868.44;5108369;28;20475;-21
2021/12/01 07:04:36;;;;;;;18.02;10.90;;;;;;;1.95;60.61;99865.66;5108176;28;20073;-22
2021/12/01 07:07:01;;;;;;;18.15;10.55;;;;;;;2.17;59.72;99856.22;5107900;28;20036;-22
2021/12/01 07:09:27;;;;;;;17.13;10.32;;;;;;;2.19;59.85;99852.44;5107959;28;20096;-20
2021/12/01 07:11:53;;;;;;;18.55;10.27;;;;;;;2.33;59.22;99864.06;5107848;28;20028;-20
2021/12/01 07:14:18;;;;;;;21.38;11.70;;;;;;;2.66;59.28;99858.66;5108237;28;20031;-20
2021/12/01 07:16:44;;;;;;;23.52;11.70;;;;;;;2.48;59.90;99856.28;5108196;28;20470;-21
2021/12/01 07:19:09;;;;;;;21.77;12.65;;;;;;;2.51;61.80;99863.81;5107737;28;20035;-21
2021/12/01 07:21:35;;;;;;;21.95;11.52;;;;;;;2.54;62.27;99873.19;5107754;28;20035;-21
2021/12/01 07:24:02;;;;;;;14.90;7.82;;;;;;;2.86;62.21;99868.75;5108086;28;20035;-21
2021/12/01 07:26:27;;;;;;;24.58;14.45;;;;;;;3.37;60.47;99883.09;5107808;28;20031;-20
2021/12/01 07:28:53;;;;;;;10.30;5.22;;;;;;;3.35;54.83;99876.31;5108143;28;20051;-20
2021/12/01 07:31:18;;;;;;;10.27;6.30;;;;;;;3.11;57.93;99851.81;5107889;28;20028;-20
2021/12/01 07:33:44;;;;;;;13.02;6.05;;;;;;;3.06;57.58;99848.84;5108017;28;20555;-20
2021/12/01 07:36:09;;;;;;;13.20;6.85;;;;;;;3.44;56.76;99863.91;5107926;28;20086;-21
2021/12/01 07:38:35;;;;;;;11.27;7.00;;;;;;;3.69;56.76;99869.78;5107837;28;20032;-20
2021/12/01 07:41:00;;;;;;;12.68;7.78;;;;;;;3.53;57.64;99866.28;5107981;28;20031;-22
2021/12/01 07:43:26;;;;;;;17.15;8.68;;;;;;;4.13;56.70;99855.84;5107745;28;20924;-20
2021/12/01 07:45:51;;;;;;;12.48;7.05;;;;;;;4.06;55.90;99839.91;5109628;28;20032;-20
2021/12/01 07:48:17;;;;;;;13.43;7.45;;;;;;;4.41;56.08;99848.06;5112182;28;20044;-20
2021/12/01 07:50:42;;;;;;;12.57;7.00;;;;;;;4.68;55.13;99833.38;5111784;28;20027;-20
2021/12/01 07:53:07;;;;;;;13.65;7.07;;;;;;;4.90;53.88;99852.72;5111675;28;20422;-20
2021/12/01 07:55:33;;;;;;;10.25;6.85;;;;;;;5.11;54.47;99857.22;5111840;28;20034;-20
2021/12/01 07:57:58;;;;;;;15.10;8.65;;;;;;;5.20;52.22;99860.53;5111565;28;20039;-20
2021/12/01 08:00:24;;;;;;;17.05;11.10;;;;;;;5.69;52.23;99872.97;5111648;28;20038;-20
2021/12/01 08:02:49;;;;;;;21.58;12.07;;;;;;;5.01;52.00;99875.19;5093368;28;20032;-20
2021/12/01 08:05:15;;;;;;;24.15;13.30;;;;;;;5.03;52.62;99878.47;5111432;28;20039;-21
2021/12/01 08:07:40;;;;;;;44.45;23.88;;;;;;;4.92;53.49;99865.75;5111242;28;20031;-20
2021/12/01 08:10:06;;;;;;;19.00;11.25;;;;;;;4.99;52.29;99856.88;5111779;28;20028;-20
2021/12/01 08:12:35;;;;;;;24.25;12.88;;;;;;;5.07;51.32;99853.31;5111618;28;20085;-21
2021/12/01 08:15:02;;;;;;;23.10;13.65;;;;;;;5.64;51.83;99855.03;5110941;28;20444;-22
2021/12/01 08:17:27;;;;;;;22.90;12.45;;;;;;;5.85;51.01;99850.72;5111543;28;20096;-21
2021/12/01 08:19:53;;;;;;;21.17;12.90;;;;;;;5.93;49.42;99839.16;5111310;28;20028;-21
2021/12/01 08:22:18;;;;;;;135.50;74.60;;;;;;;6.41;49.28;99847.97;5111424;28;20031;-23
2021/12/01 08:24:44;;;;;;;20.85;11.00;;;;;;;7.02;49.22;99851.66;5111496;28;20028;-20
2021/12/01 08:27:09;;;;;;;19.40;10.95;;;;;;;7.20;46.88;99838.63;5110831;28;20487;-21
2021/12/01 08:29:35;;;;;;;10.40;5.45;;;;;;;7.40;46.23;99853.78;5111097;28;20684;-20
2021/12/01 08:32:00;;;;;;;6.50;3.53;;;;;;;7.55;46.26;99827.84;5111210;28;20112;-20
2021/12/01 08:34:26;;;;;;;8.77;4.22;;;;;;;7.98;45.02;99838.00;5111067;28;20218;-20
2021/12/01 08:36:51;;;;;;;4.65;2.40;;;;;;;8.05;44.69;99828.19;5111016;28;20096;-20
2021/12/01 08:39:17;;;;;;;4.40;1.80;;;;;;;8.00;43.98;99825.31;5111163;28;20035;-21
2021/12/01 08:41:43;;;;;;;3.90;1.35;;;;;;;8.04;43.65;99834.50;5110601;28;20046;-20
2021/12/01 08:44:08;;;;;;;5.82;3.10;;;;;;;8.07;44.95;99821.84;5111216;28;20047;-20
2021/12/01 08:46:34;;;;;;;4.22;2.38;;;;;;;8.23;43.87;99832.00;5110688;28;20034;-20
2021/12/01 08:48:59;;;;;;;3.58;1.70;;;;;;;8.35;43.41;99854.25;5110586;28;20034;-21
2021/12/01 08:51:26;;;;;;;3.67;1.80;;;;;;;8.53;43.58;99842.16;5111061;28;20038;-20
2021/12/01 08:53:51;;;;;;;4.53;1.80;;;;;;;8.52;44.12;99829.88;5110766;28;20034;-20
2021/12/01 08:56:17;;;;;;;4.32;1.52;;;;;;;8.35;42.76;99835.66;5110040;28;20035;-21
2021/12/01 08:58:42;;;;;;;2.42;1.20;;;;;;;8.28;43.59;99834.88;5109892;28;20513;-21
2021/12/01 09:01:08;;;;;;;3.38;1.50;;;;;;;8.43;43.74;99826.66;5110670;28;20040;-20
2021/12/01 09:03:34;;;;;;;4.45;1.80;;;;;;;8.87;43.54;99832.19;5110470;28;20112;-21
2021/12/01 09:05:59;;;;;;;2.88;1.92;;;;;;;8.54;42.88;99777.34;5110397;28;20027;-21
2021/12/01 09:08:25;;;;;;;5.28;1.80;;;;;;;8.96;43.97;99825.59;5110091;28;20485;-20
2021/12/01 09:10:52;;;;;;;2.22;1.30;;;;;;;8.97;43.27;99827.19;5110251;28;20070;-21
2021/12/01 09:13:19;;;;;;;4.13;1.77;;;;;;;9.01;41.53;99817.75;5110074;28;20058;-20
2021/12/01 09:15:44;;;;;;;2.63;1.50;;;;;;;8.89;42.15;99814.16;5110201;28;20134;-20
2021/12/01 09:18:09;;;;;;;3.78;1.35;;;;;;;9.10;42.82;99810.38;5110479;28;20031;-20
2021/12/01 09:20:35;;;;;;;4.32;1.30;;;;;;;9.35;42.75;99823.69;5110379;28;20039;-20
2021/12/01 09:23:02;;;;;;;3.03;1.73;;;;;;;9.41;42.47;99806.84;5109953;28;20031;-21
2021/12/01 09:25:28;;;;;;;2.38;1.20;;;;;;;9.07;42.72;99785.00;5091998;28;20031;-20
2021/12/01 09:27:54;;;;;;;3.50;1.67;;;;;;;9.24;41.76;99812.72;5109887;28;20522;-20
2021/12/01 09:30:19;;;;;;;3.60;1.75;;;;;;;9.16;42.43;99797.00;5110118;28;20031;-20
2021/12/01 09:32:45;;;;;;;7.65;2.40;;;;;;;9.40;42.02;99815.88;5109859;28;20032;-20
2021/12/01 09:35:11;;;;;;;6.68;2.53;;;;;;;9.65;41.95;99808.69;5109546;28;20471;-20
2021/12/01 09:37:37;;;;;;;5.95;2.70;;;;;;;9.62;42.07;99787.84;5109798;28;20024;-21
2021/12/01 09:40:12;;;;;;;6.40;2.75;;;;;;;9.66;41.19;99785.53;5109536;28;20031;-20
2021/12/01 09:42:40;;;;;;;11.90;4.85;;;;;;;9.77;42.11;99798.13;5109359;28;20051;-20
2021/12/01 09:45:06;;;;;;;10.65;4.88;;;;;;;9.70;42.49;99799.22;5074632;28;20042;-20
2021/12/01 09:47:32;;;;;;;15.38;7.30;;;;;;;9.84;41.97;99790.06;5109446;28;20040;-21
2021/12/01 09:49:57;;;;;;;15.57;7.15;;;;;;;9.98;41.13;99796.06;5109756;28;20759;-20
2021/12/01 09:52:22;;;;;;;18.55;8.07;;;;;;;10.06;41.87;99777.13;5074349;28;20675;-20
2021/12/01 09:54:49;;;;;;;15.88;6.97;;;;;;;10.10;41.86;99769.50;5109441;28;20434;-20
2021/12/01 09:57:14;;;;;;;17.08;8.38;;;;;;;10.26;42.34;99766.25;5109316;28;20032;-20
2021/12/01 09:59:41;;;;;;;15.45;7.93;;;;;;;10.07;41.89;99728.13;5091056;28;20031;-20
2021/12/01 10:02:06;;;;;;;20.27;9.70;;;;;;;10.36;42.86;99761.22;5109157;28;20554;-20
2021/12/01 10:04:32;;;;;;;22.85;10.15;;;;;;;10.57;42.07;99746.56;5109326;28;20068;-21
2021/12/01 10:07:13;;;;;;;22.33;10.48;;;;;;;10.58;41.84;99753.56;5109650;28;20468;-21
2021/12/01 10:09:43;;;;;;;18.00;8.68;;;;;;;10.37;42.02;99756.69;5108923;28;20034;-20
2021/12/01 10:12:09;;;;;;;17.95;7.43;;;;;;;10.49;42.21;99744.22;5109153;28;20555;-20
2021/12/01 10:14:34;;;;;;;19.27;8.45;;;;;;;10.73;42.34;99750.47;5109354;28;20658;-20
2021/12/01 10:17:00;;;;;;;9.90;4.80;;;;;;;10.72;41.55;99754.16;5109206;28;20035;-20
2021/12/01 10:19:25;;;;;;;10.13;4.38;;;;;;;10.81;41.38;99749.34;5108656;28;20024;-20
2021/12/01 10:21:51;;;;;;;9.48;3.65;;;;;;;10.91;41.49;99752.25;5108759;28;20038;-20
2021/12/01 10:24:21;;;;;;;8.70;4.13;;;;;;;11.06;41.16;99749.16;5090663;28;20016;-21
2021/12/01 10:26:46;;;;;;;6.95;3.05;;;;;;;11.58;40.84;99761.81;5109076;28;20042;-21
2021/12/01 10:29:21;;;;;;;12.85;5.93;;;;;;;11.91;40.30;99771.94;5108648;28;20024;-20
2021/12/01 10:31:54;;;;;;;13.23;5.75;;;;;;;12.37;40.92;99746.13;5109286;28;20106;-20
2021/12/01 10:34:32;;;;;;;6.93;3.00;;;;;;;12.03;39.99;99780.75;5108751;28;20038;-21
2021/12/01 10:37:09;;;;;;;11.97;5.23;;;;;;;11.90;40.85;99764.97;5108787;28;20032;-20
2021/12/01 10:39:36;;;;;;;8.15;2.70;;;;;;;11.90;39.34;99770.31;5108690;28;20473;-20
2021/12/01 10:42:06;;;;;;;6.50;2.65;;;;;;;11.80;39.20;99756.72;5108277;28;20412;-20
2021/12/01 10:44:31;;;;;;;7.22;2.88;;;;;;;12.16;39.47;99760.97;5108633;28;20031;-20
2021/12/01 10:46:56;;;;;;;6.70;2.45;;;;;;;11.95;39.18;99762.41;5073629;28;20031;-20
2021/12/01 10:49:39;;;;;;;4.63;2.38;;;;;;;11.76;40.10;99771.56;5108234;28;20043;-20
2021/12/01 10:52:06;;;;;;;6.22;2.17;;;;;;;11.58;39.38;99762.63;5108374;28;20398;-20
2021/12/01 10:54:31;;;;;;;6.38;3.03;;;;;;;11.85;39.79;99748.81;5108382;28;20388;-20
2021/12/01 10:57:22;;;;;;;7.85;2.67;;;;;;;12.49;39.01;99750.63;5108638;28;20484;-20
2021/12/01 10:59:49;;;;;;;5.55;2.30;;;;;;;12.56;38.09;99719.19;5108357;28;20554;-20
2021/12/01 11:02:16;;;;;;;10.52;3.00;;;;;;;12.51;37.98;99721.78;5108168;28;20474;-20
2021/12/01 11:04:43;;;;;;;8.13;2.67;;;;;;;12.59;37.74;99724.88;5108013;28;20059;-20
2021/12/01 11:07:32;;;;;;;6.18;2.58;;;;;;;12.17;38.22;99716.34;5108032;28;20027;-20
2021/12/01 11:10:17;;;;;;;6.90;3.05;;;;;;;12.36;37.97;99723.13;5108101;28;20403;-20
2021/12/01 11:12:42;;;;;;;5.22;2.63;;;;;;;12.76;38.60;99719.53;5108036;28;20063;-20
2021/12/01 11:15:22;;;;;;;7.97;3.33;;;;;;;13.23;37.51;99729.94;5108035;28;20039;-19
2021/12/01 11:17:48;;;;;;;7.75;3.75;;;;;;;13.01;37.04;99726.38;5107922;28;20515;-21
2021/12/01 11:20:41;;;;;;;6.43;3.13;;;;;;;12.64;36.60;99713.44;5107405;28;20085;-20
2021/12/01 11:23:31;;;;;;;7.00;2.70;;;;;;;12.76;37.89;99713.38;5107891;28;20024;-20
2021/12/01 11:26:08;;;;;;;12.15;5.35;;;;;;;12.93;38.00;99730.25;5108072;28;20085;-20
2021/12/01 11:28:51;;;;;;;7.65;3.40;;;;;;;12.89;36.98;99722.97;5108418;28;20036;-20
2021/12/01 11:31:36;;;;;;;17.15;7.28;;;;;;;13.09;37.06;99715.25;5107649;28;20482;-21
2021/12/01 11:34:06;;;;;;;7.93;3.45;;;;;;;13.25;38.12;99714.44;5108141;28;20019;-20
2021/12/01 11:36:34;;;;;;;6.50;3.25;;;;;;;13.83;36.19;99717.69;5107994;28;20043;-20
2021/12/01 11:39:03;;;;;;;4.97;2.13;;;;;;;13.53;36.43;99706.56;5107667;28;20035;-21
2021/12/01 11:41:28;;;;;;;5.30;2.25;;;;;;;13.53;36.67;99690.50;5107955;28;20189;-20